Time;durP1;ratioP1;P1;durP2;ratioP2;P2;SDS_P1;SDS_P2;PMS_P1;PMS_P2;Temp;Humidity;BMP_temperature;BMP_pressure;BME280_temperature;BME280_humidity;BME280_pressure;Samples;Min_cycle;Max_cycle;Signal;HPM_P1;HPM_P2
2024/02/10 00:01:37;;;;;;;22.30;12.48;;;3.00;99.90;;;;;;4973052;28;20107;-67
2024/02/10 00:04:03;;;;;;;21.55;12.55;;;3.00;99.90;;;;;;4961262;28;20116;-68
2024/02/10 00:06:30;;;;;;;20.88;11.63;;;3.00;99.90;;;;;;5026870;28;20132;-67
2024/02/10 00:08:56;;;;;;;20.63;11.70;;;3.00;99.90;;;;;;5013598;28;20041;-66
2024/02/10 00:11:21;;;;;;;22.08;12.40;;;3.00;99.90;;;;;;4949560;28;20111;-67
2024/02/10 00:13:49;;;;;;;20.20;12.50;;;3.10;99.90;;;;;;4959856;28;20100;-66
2024/02/10 00:16:15;;;;;;;25.85;12.93;;;3.10;99.90;;;;;;4948653;28;22195;-67
2024/02/10 00:18:41;;;;;;;20.20;11.98;;;3.10;99.90;;;;;;5025916;28;20105;-67
2024/02/10 00:21:07;;;;;;;21.58;12.48;;;3.10;99.90;;;;;;4979063;28;20063;-67
2024/02/10 00:23:33;;;;;;;21.67;12.93;;;3.10;99.90;;;;;;4973395;28;20037;-66
2024/02/10 00:26:03;;;;;;;19.48;12.82;;;3.10;99.90;;;;;;4993847;28;20086;-66
2024/02/10 00:28:30;;;;;;;22.05;11.82;;;3.10;99.90;;;;;;4962613;28;20103;-65
2024/02/10 00:30:56;;;;;;;18.58;10.23;;;3.10;99.90;;;;;;4958918;28;20037;-68
2024/02/10 00:33:21;;;;;;;19.90;12.35;;;3.10;99.90;;;;;;5005759;28;20491;-67
2024/02/10 00:35:47;;;;;;;19.65;12.13;;;3.10;99.90;;;;;;5016662;28;20041;-66
2024/02/10 00:38:14;;;;;;;23.52;13.02;;;3.10;99.90;;;;;;4987939;28;20613;-67
2024/02/10 00:40:40;;;;;;;23.80;13.10;;;3.10;99.90;;;;;;4981274;28;20025;-67
2024/02/10 00:43:07;;;;;;;23.00;13.13;;;3.10;99.90;;;;;;4997901;28;22249;-66
2024/02/10 00:45:35;;;;;;;20.55;12.45;;;3.20;99.90;;;;;;5023412;28;21987;-66
2024/02/10 00:48:02;;;;;;;18.58;10.85;;;3.20;99.90;;;;;;4976919;28;20017;-66
2024/02/10 00:50:27;;;;;;;19.77;12.75;;;3.20;99.90;;;;;;4954452;28;20439;-67
2024/02/10 00:52:53;;;;;;;27.40;13.68;;;3.20;99.90;;;;;;4990957;28;20040;-67
2024/02/10 00:55:25;;;;;;;19.17;12.02;;;3.20;99.90;;;;;;4973332;28;22387;-67
2024/02/10 00:57:51;;;;;;;20.73;11.55;;;3.20;99.90;;;;;;4990206;28;20044;-69
2024/02/10 01:00:17;;;;;;;23.13;12.52;;;3.20;99.90;;;;;;4973087;28;20024;-66
2024/02/10 01:02:46;;;;;;;21.23;12.45;;;3.20;99.90;;;;;;4969568;28;20449;-65
2024/02/10 01:05:12;;;;;;;21.92;12.50;;;3.20;99.90;;;;;;4963412;28;20044;-66
2024/02/10 01:07:41;;;;;;;21.98;12.57;;;3.20;99.90;;;;;;4980251;28;20488;-66
2024/02/10 01:10:07;;;;;;;20.63;12.57;;;3.20;99.90;;;;;;5001153;28;20029;-67
2024/02/10 01:12:33;;;;;;;20.75;11.43;;;3.20;99.90;;;;;;5022902;28;22818;-66
2024/02/10 01:14:59;;;;;;;20.58;11.52;;;3.20;99.90;;;;;;5003556;28;20037;-66
2024/02/10 01:17:27;;;;;;;22.30;12.07;;;3.20;99.90;;;;;;4997412;28;20123;-65
2024/02/10 01:19:54;;;;;;;19.38;11.73;;;3.20;99.90;;;;;;5002348;28;20139;-66
2024/02/10 01:22:25;;;;;;;22.20;11.52;;;3.20;99.90;;;;;;4989711;28;21898;-66
2024/02/10 01:24:55;;;;;;;17.52;10.88;;;3.20;99.90;;;;;;4995986;28;20187;-66
2024/02/10 01:27:26;;;;;;;18.40;12.40;;;3.20;99.90;;;;;;4999284;28;20040;-65
2024/02/10 01:29:53;;;;;;;22.20;12.75;;;3.20;99.90;;;;;;4995910;28;20025;-66
2024/02/10 01:32:19;;;;;;;19.92;11.73;;;3.30;99.90;;;;;;4992102;28;20032;-66
2024/02/10 01:34:47;;;;;;;19.42;11.52;;;3.30;99.90;;;;;;4976985;28;20043;-66
2024/02/10 01:37:19;;;;;;;23.92;12.77;;;3.30;99.90;;;;;;4997716;28;20056;-66
2024/02/10 01:39:57;;;;;;;19.80;11.20;;;3.30;99.90;;;;;;5014945;28;20086;-65
2024/02/10 01:42:39;;;;;;;20.23;11.57;;;3.30;99.90;;;;;;5000564;28;20140;-66
2024/02/10 01:45:07;;;;;;;20.73;11.65;;;3.30;99.90;;;;;;5013307;28;20021;-66
2024/02/10 01:47:37;;;;;;;26.10;13.25;;;3.30;99.90;;;;;;4985878;28;20059;-66
2024/02/10 01:50:06;;;;;;;19.88;12.10;;;3.30;99.90;;;;;;4982709;28;20097;-65
2024/02/10 01:52:35;;;;;;;19.90;11.50;;;3.30;99.90;;;;;;4987024;28;20124;-66
2024/02/10 01:55:01;;;;;;;23.15;12.68;;;3.30;99.90;;;;;;4989432;28;20048;-68
2024/02/10 01:57:27;;;;;;;25.23;13.77;;;3.30;99.90;;;;;;4989942;28;20064;-66
2024/02/10 01:59:53;;;;;;;20.98;11.55;;;3.30;99.90;;;;;;4986094;28;20124;-64
2024/02/10 02:02:19;;;;;;;20.02;11.80;;;3.30;99.90;;;;;;4968075;28;20037;-67
2024/02/10 02:04:44;;;;;;;21.80;12.55;;;3.30;99.90;;;;;;4986141;28;20028;-65
2024/02/10 02:07:10;;;;;;;21.27;12.10;;;3.30;99.90;;;;;;4975091;28;20239;-64
2024/02/10 02:09:37;;;;;;;22.10;12.57;;;3.30;99.90;;;;;;5005995;28;21697;-66
2024/02/10 02:12:07;;;;;;;24.25;12.52;;;3.30;99.90;;;;;;5003227;28;20131;-66
2024/02/10 02:14:36;;;;;;;19.65;11.98;;;3.40;99.90;;;;;;4969288;28;20403;-66
2024/02/10 02:17:05;;;;;;;22.83;12.30;;;3.40;99.90;;;;;;4976105;28;20028;-65
2024/02/10 02:19:40;;;;;;;24.40;13.18;;;3.40;99.90;;;;;;4973287;28;20111;-65
2024/02/10 02:22:08;;;;;;;23.73;12.82;;;3.40;99.90;;;;;;4972001;28;20447;-64
2024/02/10 02:24:34;;;;;;;23.75;12.93;;;3.40;99.90;;;;;;4998526;28;22154;-66
2024/02/10 02:27:00;;;;;;;23.02;12.68;;;3.40;99.90;;;;;;4998904;28;20040;-65
2024/02/10 02:29:26;;;;;;;22.17;12.20;;;3.40;99.90;;;;;;4971415;28;20025;-66
2024/02/10 02:31:53;;;;;;;20.80;11.55;;;3.40;99.90;;;;;;4965983;28;20083;-65
2024/02/10 02:34:20;;;;;;;22.63;11.85;;;3.40;99.90;;;;;;4987346;28;22089;-65
2024/02/10 02:36:46;;;;;;;21.40;12.27;;;3.40;99.90;;;;;;4997849;28;20036;-65
2024/02/10 02:39:12;;;;;;;24.20;12.70;;;3.40;99.90;;;;;;4994044;28;20033;-64
2024/02/10 02:41:37;;;;;;;19.92;11.10;;;3.40;99.90;;;;;;4966149;28;20037;-68
2024/02/10 02:44:05;;;;;;;21.70;12.77;;;3.40;99.90;;;;;;4960291;28;20021;-66
2024/02/10 02:46:31;;;;;;;22.52;11.93;;;3.40;99.90;;;;;;4983414;28;20405;-67
2024/02/10 02:48:56;;;;;;;19.85;11.80;;;3.40;99.90;;;;;;5000832;28;20032;-65
2024/02/10 02:51:22;;;;;;;22.27;13.48;;;3.40;99.90;;;;;;4964318;28;20028;-65
2024/02/10 02:53:51;;;;;;;21.50;10.82;;;3.40;99.90;;;;;;4989338;28;20026;-65
2024/02/10 02:56:18;;;;;;;24.25;12.32;;;3.40;99.90;;;;;;4953035;28;20033;-66
2024/02/10 02:58:51;;;;;;;22.88;12.80;;;3.40;99.90;;;;;;4962201;28;20040;-67
2024/02/10 03:01:17;;;;;;;25.33;13.02;;;3.40;99.90;;;;;;4977610;28;20152;-65
2024/02/10 03:03:46;;;;;;;24.05;12.88;;;3.40;99.90;;;;;;4996674;28;20412;-66
2024/02/10 03:06:12;;;;;;;23.30;12.35;;;3.40;99.90;;;;;;4982231;28;20029;-65
2024/02/10 03:08:45;;;;;;;22.45;12.30;;;3.40;99.90;;;;;;4948094;28;20104;-66
2024/02/10 03:11:13;;;;;;;26.25;13.10;;;3.40;99.90;;;;;;4946575;28;20086;-67
2024/02/10 03:13:43;;;;;;;25.52;12.27;;;3.40;99.90;;;;;;4976745;28;20031;-66
2024/02/10 03:16:09;;;;;;;24.98;13.50;;;3.50;99.90;;;;;;4948788;28;20037;-65
2024/02/10 03:18:38;;;;;;;23.48;12.35;;;3.40;99.90;;;;;;4988095;28;21879;-65
2024/02/10 03:21:04;;;;;;;20.45;11.98;;;3.40;99.90;;;;;;4979132;28;20029;-66
2024/02/10 03:23:31;;;;;;;26.92;14.20;;;3.40;99.90;;;;;;4943464;28;20029;-65
2024/02/10 03:26:01;;;;;;;24.40;13.10;;;3.40;99.90;;;;;;4940611;28;20021;-66
2024/02/10 03:28:27;;;;;;;24.67;12.52;;;3.40;99.90;;;;;;4968806;28;20520;-64
2024/02/10 03:30:52;;;;;;;23.90;13.02;;;3.40;99.90;;;;;;4985298;28;20025;-65
2024/02/10 03:33:18;;;;;;;22.60;12.85;;;3.40;99.90;;;;;;4942346;28;20412;-67
2024/02/10 03:35:44;;;;;;;23.50;14.13;;;3.40;99.90;;;;;;4966498;28;20028;-64
2024/02/10 03:38:09;;;;;;;27.10;13.93;;;3.40;99.90;;;;;;4955023;28;20098;-64
2024/02/10 03:40:35;;;;;;;25.45;13.43;;;3.40;99.90;;;;;;4968174;28;20021;-64
2024/02/10 03:43:01;;;;;;;24.83;13.00;;;3.40;99.90;;;;;;4943057;28;20025;-67
2024/02/10 03:45:33;;;;;;;23.40;12.48;;;3.40;99.90;;;;;;4956735;28;20029;-65
2024/02/10 03:48:04;;;;;;;23.60;12.93;;;3.40;99.90;;;;;;4971460;28;20048;-66
2024/02/10 03:50:30;;;;;;;23.38;12.27;;;3.40;99.90;;;;;;4941981;28;20029;-65
2024/02/10 03:52:57;;;;;;;23.55;13.90;;;3.40;99.90;;;;;;4943167;28;20032;-64
2024/02/10 03:55:23;;;;;;;24.85;13.20;;;3.40;99.90;;;;;;4965776;28;21849;-65
2024/02/10 03:57:53;;;;;;;26.75;13.45;;;3.40;99.90;;;;;;4964258;28;20104;-65
2024/02/10 04:00:26;;;;;;;24.95;14.05;;;3.40;99.90;;;;;;4930550;28;20040;-67
2024/02/10 04:02:55;;;;;;;24.88;13.90;;;3.40;99.90;;;;;;4972254;28;20052;-64
2024/02/10 04:05:21;;;;;;;29.98;14.18;;;3.40;99.90;;;;;;4950850;28;20666;-65
2024/02/10 04:07:51;;;;;;;27.20;12.75;;;3.40;99.90;;;;;;4957505;28;20035;-67
2024/02/10 04:10:17;;;;;;;26.83;13.75;;;3.40;99.90;;;;;;4963142;28;20052;-65
2024/02/10 04:12:43;;;;;;;22.67;13.80;;;3.40;99.90;;;;;;4973053;28;20116;-64
2024/02/10 04:15:12;;;;;;;25.52;14.82;;;3.40;99.90;;;;;;4956756;28;20043;-66
2024/02/10 04:17:49;;;;;;;33.10;14.80;;;3.40;99.90;;;;;;4927697;28;20033;-65
2024/02/10 04:20:19;;;;;;;24.40;12.82;;;3.40;99.90;;;;;;4901775;28;20025;-65
2024/02/10 04:22:45;;;;;;;22.70;13.25;;;3.50;99.90;;;;;;4957510;28;20109;-66
2024/02/10 04:25:12;;;;;;;25.77;14.20;;;3.40;99.90;;;;;;4922878;28;20025;-65
2024/02/10 04:27:38;;;;;;;23.75;13.70;;;3.50;99.90;;;;;;4956527;28;20598;-65
2024/02/10 04:30:07;;;;;;;25.83;13.80;;;3.50;99.90;;;;;;4948784;28;20021;-65
2024/02/10 04:32:33;;;;;;;27.23;14.85;;;3.40;99.90;;;;;;4923147;28;20074;-64
2024/02/10 04:34:59;;;;;;;26.05;14.57;;;3.40;99.90;;;;;;4916561;28;20037;-65
2024/02/10 04:37:25;;;;;;;24.83;13.88;;;3.40;99.90;;;;;;4950017;28;20864;-65
2024/02/10 04:39:50;;;;;;;30.02;14.65;;;3.50;99.90;;;;;;4973840;28;20029;-64
2024/02/10 04:42:16;;;;;;;28.88;15.18;;;3.40;99.90;;;;;;4936821;28;20089;-67
2024/02/10 04:44:48;;;;;;;27.60;14.48;;;3.40;99.90;;;;;;4932168;28;20099;-66
2024/02/10 04:47:15;;;;;;;25.88;12.95;;;3.50;99.90;;;;;;4966662;28;20013;-64
2024/02/10 04:49:40;;;;;;;25.58;13.98;;;3.40;99.90;;;;;;4947528;28;20480;-65
2024/02/10 04:52:06;;;;;;;27.27;13.75;;;3.50;99.90;;;;;;4909734;28;20044;-67
2024/02/10 04:54:32;;;;;;;26.35;14.18;;;3.40;99.90;;;;;;4944989;28;20029;-65
2024/02/10 04:56:58;;;;;;;33.17;14.32;;;3.40;99.90;;;;;;4957666;28;20083;-65
2024/02/10 04:59:26;;;;;;;28.98;14.75;;;3.40;99.90;;;;;;4944012;28;20021;-65
2024/02/10 05:01:55;;;;;;;27.98;15.32;;;3.40;99.90;;;;;;4919884;28;20029;-65
2024/02/10 05:04:21;;;;;;;27.73;14.05;;;3.40;99.90;;;;;;4946087;28;20620;-64
2024/02/10 05:06:47;;;;;;;31.05;14.93;;;3.40;99.90;;;;;;4968511;28;20025;-64
2024/02/10 05:09:17;;;;;;;26.27;14.32;;;3.40;99.90;;;;;;4969352;28;20056;-64
2024/02/10 05:11:43;;;;;;;25.75;14.05;;;3.40;99.90;;;;;;4905659;28;20662;-64
2024/02/10 05:14:09;;;;;;;24.20;14.10;;;3.40;99.90;;;;;;4915530;28;22894;-65
2024/02/10 05:16:35;;;;;;;30.52;13.63;;;3.40;99.90;;;;;;4941193;28;20032;-65
2024/02/10 05:19:01;;;;;;;26.45;14.85;;;3.40;99.90;;;;;;4928042;28;20029;-67
2024/02/10 05:21:28;;;;;;;24.02;13.88;;;3.40;99.90;;;;;;4951019;28;20033;-65
2024/02/10 05:24:07;;;;;;;25.90;14.15;;;3.40;99.90;;;;;;4953691;28;20598;-65
2024/02/10 05:26:38;;;;;;;27.27;15.27;;;3.40;99.90;;;;;;4917268;28;20021;-64
2024/02/10 05:29:07;;;;;;;33.70;14.63;;;3.40;99.90;;;;;;4913537;28;20113;-65
2024/02/10 05:31:38;;;;;;;33.83;13.73;;;3.40;99.90;;;;;;4938668;28;20405;-66
2024/02/10 05:34:04;;;;;;;27.70;15.15;;;3.40;99.90;;;;;;4922406;28;20028;-66
2024/02/10 05:36:34;;;;;;;26.02;13.82;;;3.40;99.90;;;;;;4928321;28;20028;-64
2024/02/10 05:39:09;;;;;;;29.23;15.25;;;3.40;99.90;;;;;;4946692;28;20025;-64
2024/02/10 05:41:36;;;;;;;31.55;16.67;;;3.40;99.90;;;;;;4898939;28;20032;-65
2024/02/10 05:44:02;;;;;;;22.40;14.27;;;3.40;99.90;;;;;;4876413;28;20021;-64
2024/02/10 05:46:30;;;;;;;30.33;14.43;;;3.40;99.90;;;;;;4937051;28;21940;-65
2024/02/10 05:48:56;;;;;;;31.88;15.18;;;3.40;99.90;;;;;;4949297;28;20029;-65
2024/02/10 05:51:25;;;;;;;33.10;16.88;;;3.40;99.90;;;;;;4905067;28;20147;-67
2024/02/10 05:53:51;;;;;;;27.63;13.73;;;3.50;99.90;;;;;;4978871;28;20021;-66
2024/02/10 05:56:17;;;;;;;25.35;14.27;;;3.40;99.90;;;;;;4896874;28;20164;-65
2024/02/10 05:58:45;;;;;;;26.80;14.15;;;3.40;99.90;;;;;;4938444;28;20025;-64
2024/02/10 06:01:13;;;;;;;27.38;14.57;;;3.40;99.90;;;;;;4889937;28;20033;-66
2024/02/10 06:03:41;;;;;;;26.15;14.98;;;3.40;99.90;;;;;;4973607;28;20137;-66
2024/02/10 06:06:08;;;;;;;29.95;16.90;;;3.40;99.90;;;;;;4984619;28;20112;-66
2024/02/10 06:08:37;;;;;;;30.60;15.10;;;3.40;99.90;;;;;;4962495;28;20036;-65
2024/02/10 06:11:05;;;;;;;28.45;14.95;;;3.40;99.90;;;;;;4903815;28;20021;-65
2024/02/10 06:13:32;;;;;;;34.70;14.80;;;3.50;99.90;;;;;;4936797;28;20033;-65
2024/02/10 06:15:59;;;;;;;30.50;16.02;;;3.50;99.90;;;;;;4943081;28;20021;-65
2024/02/10 06:18:30;;;;;;;28.55;15.15;;;3.50;99.90;;;;;;4876692;28;20459;-67
2024/02/10 06:20:57;;;;;;;30.60;15.82;;;3.50;99.90;;;;;;4970429;28;20018;-65
2024/02/10 06:23:25;;;;;;;31.25;14.57;;;3.50;99.90;;;;;;4887417;28;20032;-66
2024/02/10 06:25:54;;;;;;;37.30;16.02;;;3.50;99.90;;;;;;4902959;28;20059;-67
2024/02/10 06:28:21;;;;;;;31.25;15.85;;;3.50;99.90;;;;;;4927937;28;22013;-65
2024/02/10 06:30:51;;;;;;;36.10;15.80;;;3.50;99.90;;;;;;4952635;28;20393;-65
2024/02/10 06:33:19;;;;;;;29.92;15.77;;;3.60;99.90;;;;;;4919920;28;20488;-67
2024/02/10 06:35:47;;;;;;;26.98;14.95;;;3.50;99.90;;;;;;4930108;28;20035;-65
2024/02/10 06:38:14;;;;;;;32.63;15.18;;;3.50;99.90;;;;;;4915954;28;20021;-65
2024/02/10 06:40:40;;;;;;;28.05;15.10;;;3.50;99.90;;;;;;4929015;28;20052;-64
2024/02/10 06:43:12;;;;;;;27.52;15.23;;;3.50;99.90;;;;;;4901531;28;20021;-67
2024/02/10 06:45:39;;;;;;;26.73;15.30;;;3.60;99.90;;;;;;4959627;28;22764;-65
2024/02/10 06:48:07;;;;;;;28.58;15.02;;;3.50;99.90;;;;;;4966819;28;20373;-65
2024/02/10 06:50:35;;;;;;;31.08;15.73;;;3.50;99.90;;;;;;4924342;28;20025;-64
2024/02/10 06:53:00;;;;;;;29.60;15.13;;;3.50;99.90;;;;;;4874047;28;20041;-66
2024/02/10 06:55:27;;;;;;;26.42;14.18;;;3.60;99.90;;;;;;4923487;28;20897;-65
2024/02/10 06:57:55;;;;;;;29.25;16.10;;;3.60;99.90;;;;;;4939392;28;20024;-65
2024/02/10 07:00:22;;;;;;;30.40;16.10;;;3.60;99.90;;;;;;4896883;28;20059;-68
2024/02/10 07:02:48;;;;;;;31.15;14.98;;;3.60;99.90;;;;;;4933496;28;20496;-65
2024/02/10 07:05:17;;;;;;;30.65;15.38;;;3.60;99.90;;;;;;4902771;28;20017;-64
2024/02/10 07:07:46;;;;;;;29.83;15.50;;;3.60;99.90;;;;;;4913988;28;20022;-65
2024/02/10 07:10:13;;;;;;;26.63;14.23;;;3.60;99.90;;;;;;4875206;28;20408;-67
2024/02/10 07:12:42;;;;;;;31.20;16.73;;;3.60;99.90;;;;;;4944153;28;20043;-64
2024/02/10 07:15:13;;;;;;;31.35;15.52;;;3.60;99.90;;;;;;4922820;28;20428;-65
2024/02/10 07:17:43;;;;;;;33.30;14.77;;;3.70;99.90;;;;;;4908572;28;20029;-64
2024/02/10 07:20:18;;;;;;;32.00;15.82;;;3.60;99.90;;;;;;4853425;28;21812;-65
2024/02/10 07:22:49;;;;;;;29.00;15.65;;;3.60;99.90;;;;;;4915849;28;20034;-66
2024/02/10 07:25:15;;;;;;;31.63;15.25;;;3.70;99.90;;;;;;4909268;28;20615;-65
2024/02/10 07:27:41;;;;;;;27.13;14.95;;;3.70;99.90;;;;;;4962651;28;21480;-66
2024/02/10 07:30:07;;;;;;;27.08;14.70;;;3.70;99.90;;;;;;4928649;28;20029;-66
2024/02/10 07:32:33;;;;;;;28.77;15.00;;;3.70;99.90;;;;;;4896216;28;20033;-65
2024/02/10 07:35:00;;;;;;;33.22;15.52;;;3.70;99.90;;;;;;4876804;28;20039;-65
2024/02/10 07:37:27;;;;;;;28.88;15.63;;;3.80;99.90;;;;;;4911426;28;20163;-65
2024/02/10 07:39:52;;;;;;;30.85;15.85;;;3.80;99.90;;;;;;4964242;28;20024;-66
2024/02/10 07:42:20;;;;;;;28.88;15.73;;;3.80;99.90;;;;;;4910799;28;20025;-66
2024/02/10 07:44:47;;;;;;;27.90;15.52;;;3.70;99.90;;;;;;4888626;28;20044;-66
2024/02/10 07:47:13;;;;;;;32.55;16.10;;;3.80;99.90;;;;;;4893180;28;20025;-66
2024/02/10 07:49:44;;;;;;;30.25;15.60;;;3.90;99.90;;;;;;4975799;28;20036;-66
2024/02/10 07:52:12;;;;;;;26.58;14.90;;;3.80;99.90;;;;;;4929655;28;20531;-63
2024/02/10 07:54:38;;;;;;;31.25;15.55;;;3.90;99.90;;;;;;4943086;28;21310;-65
2024/02/10 07:57:04;;;;;;;27.92;14.68;;;3.90;99.90;;;;;;5023300;28;20025;-64
2024/02/10 07:59:30;;;;;;;27.17;15.13;;;3.90;99.90;;;;;;4962574;28;20083;-65
2024/02/10 08:01:55;;;;;;;30.05;15.98;;;3.90;99.90;;;;;;4956981;28;20032;-65
2024/02/10 08:04:21;;;;;;;28.13;14.90;;;3.90;99.90;;;;;;4967246;28;20056;-65
2024/02/10 08:06:48;;;;;;;31.23;15.40;;;3.90;99.90;;;;;;4950016;28;21638;-66
2024/02/10 08:09:13;;;;;;;30.88;16.17;;;4.00;99.90;;;;;;5019267;28;20341;-65
2024/02/10 08:11:43;;;;;;;31.45;15.38;;;4.00;99.90;;;;;;4934083;28;20037;-66
2024/02/10 08:14:09;;;;;;;31.45;16.20;;;4.00;99.90;;;;;;4973440;28;21726;-65
2024/02/10 08:16:38;;;;;;;33.97;16.65;;;4.00;99.90;;;;;;5036377;28;20037;-65
2024/02/10 08:19:04;;;;;;;30.98;16.05;;;4.00;99.90;;;;;;4995792;28;20021;-68
2024/02/10 08:21:33;;;;;;;28.42;15.82;;;4.00;99.90;;;;;;4971795;28;20033;-67
2024/02/10 08:23:58;;;;;;;30.45;16.60;;;4.00;99.90;;;;;;4983914;28;20021;-67
2024/02/10 08:26:26;;;;;;;30.55;16.10;;;4.10;99.90;;;;;;4964452;28;20060;-67
2024/02/10 08:28:55;;;;;;;32.30;16.70;;;4.10;99.90;;;;;;4997879;28;20416;-67
2024/02/10 08:31:21;;;;;;;29.95;16.05;;;4.10;99.90;;;;;;5011963;28;20086;-67
2024/02/10 08:33:49;;;;;;;30.52;14.82;;;4.20;99.90;;;;;;5012807;28;20029;-67
2024/02/10 08:36:16;;;;;;;27.90;15.48;;;4.20;99.90;;;;;;4995893;28;20028;-67
2024/02/10 08:38:44;;;;;;;31.50;15.40;;;4.10;99.90;;;;;;4979607;28;20032;-67
2024/02/10 08:41:10;;;;;;;32.78;16.17;;;4.20;99.90;;;;;;4977546;28;21584;-67
2024/02/10 08:43:38;;;;;;;27.88;15.00;;;4.20;99.90;;;;;;5021488;28;21637;-67
2024/02/10 08:46:05;;;;;;;30.50;16.58;;;4.30;99.90;;;;;;5016215;28;20017;-67
2024/02/10 08:48:30;;;;;;;33.63;17.85;;;4.30;99.90;;;;;;4997693;28;20025;-67
2024/02/10 08:50:56;;;;;;;32.08;17.25;;;4.30;99.90;;;;;;4988033;28;20028;-67
2024/02/10 08:53:22;;;;;;;36.17;17.52;;;4.30;99.90;;;;;;4955760;28;20515;-67
2024/02/10 08:55:49;;;;;;;33.63;17.48;;;4.30;99.90;;;;;;5018562;28;20024;-68
2024/02/10 08:58:15;;;;;;;29.52;14.55;;;4.30;99.90;;;;;;4988653;28;20021;-66
2024/02/10 09:00:45;;;;;;;34.63;17.00;;;4.30;99.90;;;;;;4965088;28;20053;-67
2024/02/10 09:03:11;;;;;;;30.55;15.90;;;4.30;99.90;;;;;;4983249;28;20040;-67
2024/02/10 09:05:38;;;;;;;32.55;16.65;;;4.40;99.90;;;;;;4964212;28;20052;-68
2024/02/10 09:08:04;;;;;;;30.80;16.67;;;4.40;99.90;;;;;;4922480;28;20021;-68
2024/02/10 09:10:29;;;;;;;33.38;16.63;;;4.40;99.90;;;;;;5023662;28;20059;-68
2024/02/10 09:12:56;;;;;;;35.42;15.70;;;4.40;99.90;;;;;;4991157;28;20441;-67
2024/02/10 09:15:22;;;;;;;33.60;15.95;;;4.40;99.90;;;;;;5006025;28;20028;-67
2024/02/10 09:17:48;;;;;;;33.95;17.08;;;4.40;99.90;;;;;;4994610;28;20025;-67
2024/02/10 09:20:14;;;;;;;35.40;16.67;;;4.40;99.90;;;;;;4999712;28;20060;-67
2024/02/10 09:22:40;;;;;;;28.00;15.93;;;4.40;99.90;;;;;;5020614;28;20037;-67
2024/02/10 09:25:06;;;;;;;35.30;16.85;;;4.40;99.90;;;;;;5011959;28;20513;-67
2024/02/10 09:27:32;;;;;;;32.97;15.93;;;4.40;99.90;;;;;;5002290;28;20501;-67
2024/02/10 09:30:00;;;;;;;31.33;17.20;;;4.50;99.90;;;;;;4989313;28;20026;-67
2024/02/10 09:32:25;;;;;;;32.92;17.27;;;4.50;99.90;;;;;;4998532;28;20032;-67
2024/02/10 09:34:52;;;;;;;37.90;17.67;;;4.50;99.90;;;;;;5024065;28;20036;-66
2024/02/10 09:37:20;;;;;;;38.22;16.83;;;4.50;99.90;;;;;;5001601;28;20021;-68
2024/02/10 09:39:46;;;;;;;31.25;16.08;;;4.50;99.90;;;;;;5012728;28;20091;-66
2024/02/10 09:42:22;;;;;;;35.63;17.02;;;4.50;99.90;;;;;;4996466;28;20036;-67
2024/02/10 09:44:49;;;;;;;31.60;16.98;;;4.50;99.90;;;;;;4987489;28;20074;-68
2024/02/10 09:47:16;;;;;;;33.17;16.67;;;4.50;99.90;;;;;;4994265;28;20025;-67
2024/02/10 09:49:42;;;;;;;35.95;17.67;;;4.50;99.90;;;;;;5020985;28;20029;-67
2024/02/10 09:52:09;;;;;;;36.78;17.10;;;4.60;99.90;;;;;;5013109;28;20067;-67
2024/02/10 09:54:36;;;;;;;34.67;16.92;;;4.60;99.90;;;;;;4965270;28;20488;-68
2024/02/10 09:57:03;;;;;;;33.63;18.05;;;4.60;99.90;;;;;;4998002;28;20071;-67
2024/02/10 09:59:29;;;;;;;35.75;17.30;;;4.60;99.90;;;;;;4982542;28;20043;-66
2024/02/10 10:01:59;;;;;;;33.05;16.10;;;4.70;99.90;;;;;;5001076;28;20025;-67
2024/02/10 10:04:25;;;;;;;33.45;17.38;;;4.70;99.90;;;;;;4983069;28;20066;-67
2024/02/10 10:06:51;;;;;;;37.22;16.90;;;4.70;99.90;;;;;;4997177;28;20585;-67
2024/02/10 10:09:21;;;;;;;35.88;17.73;;;4.70;99.90;;;;;;4978562;28;20044;-68
2024/02/10 10:11:48;;;;;;;40.67;18.60;;;4.80;99.90;;;;;;4980013;28;20032;-67
2024/02/10 10:14:18;;;;;;;37.30;17.67;;;4.80;99.90;;;;;;4975487;28;20032;-67
2024/02/10 10:17:02;;;;;;;35.47;17.85;;;4.80;99.90;;;;;;5011318;28;20035;-66
2024/02/10 10:19:28;;;;;;;36.28;16.88;;;4.90;99.90;;;;;;4989923;28;20052;-67
2024/02/10 10:21:55;;;;;;;34.60;17.02;;;4.90;99.90;;;;;;5010741;28;20100;-67
2024/02/10 10:24:22;;;;;;;37.55;16.83;;;4.90;99.90;;;;;;4999705;28;20119;-67
2024/02/10 10:27:02;;;;;;;33.58;17.58;;;4.90;99.90;;;;;;5023284;28;20448;-68
2024/02/10 10:29:33;;;;;;;34.10;14.98;;;5.00;99.90;;;;;;5007941;28;20430;-67
2024/02/10 10:32:01;;;;;;;35.00;18.02;;;5.00;99.90;;;;;;5030088;28;20029;-67
2024/02/10 10:34:31;;;;;;;33.80;17.48;;;5.00;99.90;;;;;;5027831;28;20111;-67
2024/02/10 10:37:00;;;;;;;32.88;16.00;;;5.00;99.90;;;;;;5029260;28;20053;-67
2024/02/10 10:39:27;;;;;;;29.70;15.55;;;5.10;99.90;;;;;;5021258;28;20557;-67
2024/02/10 10:41:55;;;;;;;32.53;16.65;;;5.10;99.90;;;;;;5017049;28;20021;-67
2024/02/10 10:44:21;;;;;;;31.98;15.70;;;5.10;99.90;;;;;;5025151;28;20033;-66
2024/02/10 10:46:47;;;;;;;29.85;16.85;;;5.20;99.90;;;;;;5028464;28;20033;-66
2024/02/10 10:49:12;;;;;;;29.30;14.25;;;5.20;99.90;;;;;;5024463;28;20024;-67
2024/02/10 10:51:54;;;;;;;33.95;16.45;;;5.30;99.90;;;;;;5019982;28;20045;-66
2024/02/10 10:54:24;;;;;;;29.27;15.93;;;5.30;99.90;;;;;;5020217;28;20033;-67
2024/02/10 10:56:51;;;;;;;31.17;15.68;;;5.30;99.90;;;;;;5018531;28;20035;-67
2024/02/10 10:59:17;;;;;;;32.58;15.35;;;5.40;99.90;;;;;;5022600;28;20028;-67
2024/02/10 11:01:45;;;;;;;28.58;14.50;;;5.40;99.90;;;;;;5024065;28;20036;-66
2024/02/10 11:04:12;;;;;;;32.38;16.52;;;5.40;99.90;;;;;;5023216;28;20283;-66
2024/02/10 11:06:43;;;;;;;32.08;15.60;;;5.50;99.90;;;;;;4998340;28;20671;-66
2024/02/10 11:09:14;;;;;;;38.38;17.95;;;5.50;99.90;;;;;;5016059;28;20129;-66
2024/02/10 11:11:41;;;;;;;38.90;17.63;;;5.60;99.90;;;;;;5021281;28;20033;-67
2024/02/10 11:14:11;;;;;;;30.38;15.45;;;5.60;99.90;;;;;;5015974;28;20531;-67
2024/02/10 11:16:36;;;;;;;29.10;14.45;;;5.60;99.90;;;;;;5025468;28;20112;-67
2024/02/10 11:19:03;;;;;;;29.13;15.07;;;5.60;99.90;;;;;;5023955;28;20456;-66
2024/02/10 11:21:35;;;;;;;29.92;15.68;;;5.60;99.90;;;;;;5012756;28;20055;-67
2024/02/10 11:24:05;;;;;;;32.38;13.57;;;5.60;99.90;;;;;;5018320;28;20078;-67
2024/02/10 11:26:33;;;;;;;35.17;15.60;;;5.70;99.90;;;;;;5022000;28;20534;-66
2024/02/10 11:29:07;;;;;;;31.98;14.43;;;5.70;99.90;;;;;;5023119;28;20017;-66
2024/02/10 11:31:33;;;;;;;29.20;14.43;;;5.70;99.90;;;;;;5027120;28;20450;-67
2024/02/10 11:34:19;;;;;;;28.40;15.05;;;5.70;99.90;;;;;;5024025;28;20445;-66
2024/02/10 11:36:56;;;;;;;31.25;14.48;;;5.80;99.90;;;;;;5017199;28;20062;-66
2024/02/10 11:39:23;;;;;;;26.45;13.77;;;5.80;99.90;;;;;;5010817;28;20365;-67
2024/02/10 11:41:53;;;;;;;32.58;15.07;;;5.80;99.90;;;;;;5011739;28;20485;-68
2024/02/10 11:44:18;;;;;;;34.10;15.57;;;5.80;99.90;;;;;;4998554;28;20024;-66
2024/02/10 11:46:45;;;;;;;28.30;14.85;;;5.90;99.90;;;;;;5018321;28;20025;-66
2024/02/10 11:49:11;;;;;;;35.78;15.73;;;5.90;99.90;;;;;;5014225;28;20028;-67
2024/02/10 11:51:37;;;;;;;29.65;13.95;;;5.90;99.90;;;;;;4993458;28;20086;-66
2024/02/10 11:54:03;;;;;;;30.38;14.15;;;5.90;99.90;;;;;;5010831;28;20569;-66
2024/02/10 11:56:32;;;;;;;30.92;14.35;;;6.00;99.90;;;;;;5016304;28;20515;-66
2024/02/10 11:59:05;;;;;;;30.80;13.90;;;6.00;99.90;;;;;;5022499;28;20029;-67
2024/02/10 12:01:34;;;;;;;28.52;14.48;;;6.10;99.90;;;;;;5020042;28;20496;-67
2024/02/10 12:04:06;;;;;;;28.15;14.65;;;6.10;99.90;;;;;;5018481;28;20033;-66
2024/02/10 12:06:32;;;;;;;30.27;14.90;;;6.10;99.90;;;;;;4994459;28;20032;-67
2024/02/10 12:08:59;;;;;;;24.98;12.70;;;6.10;99.90;;;;;;5005535;28;20044;-67
2024/02/10 12:11:26;;;;;;;25.00;13.95;;;6.20;99.90;;;;;;5014161;28;20057;-67
2024/02/10 12:13:56;;;;;;;28.00;13.95;;;6.20;99.90;;;;;;5016861;28;20711;-66
2024/02/10 12:16:26;;;;;;;28.55;14.30;;;6.20;99.90;;;;;;5010290;28;20081;-66
2024/02/10 12:18:52;;;;;;;27.73;14.55;;;6.20;99.90;;;;;;5016301;28;20044;-66
2024/02/10 12:21:19;;;;;;;29.55;13.27;;;6.20;99.90;;;;;;5010864;28;20033;-67
2024/02/10 12:23:50;;;;;;;33.40;14.68;;;6.20;99.90;;;;;;5014899;28;20124;-67
2024/02/10 12:26:16;;;;;;;31.70;15.07;;;6.20;99.90;;;;;;5012817;28;20277;-67
2024/02/10 12:28:41;;;;;;;26.77;13.98;;;6.20;99.90;;;;;;5013045;28;20140;-67
2024/02/10 12:31:07;;;;;;;33.13;14.93;;;6.20;99.90;;;;;;5015210;28;20598;-66
2024/02/10 12:33:34;;;;;;;31.20;16.95;;;6.20;99.90;;;;;;4937199;28;20492;-67
2024/02/10 12:36:00;;;;;;;28.35;15.45;;;6.20;99.90;;;;;;4950594;28;20158;-67
2024/02/10 12:38:26;;;;;;;26.42;13.48;;;6.20;99.90;;;;;;4955315;28;20029;-67